East Selah, Washington
Current Conditions -  °F | °C
As of 1:56 PM on Tuesday 25 Nov 2014 (Local Time) from K1YT Reporting Station
Broken Clouds Broken Clouds  
Wind Chill: 41°   Ceiling: 4800
Heat Index: 47°   Visibility: 10mi
Dew Point: 40°   Wind: 16mph
Humidity: 77%   Direction: 90°E
Pressure: 30.16"   Gusts: 23mph
Location:  46.6267°N, 120.424°W
Report Text: K1YT 252156Z AUTO 09014G20KT 10SM BKN048 08/05 A3016 RMK AO2 SLPNO T00840045
Loading
Personal Weather Stations






























Interactive Weather Map New forecast layout! Learn more

10-Day Weather Forecast

Advertisements
Track Severe Weather on mobile